Time;durP1;ratioP1;P1;durP2;ratioP2;P2;SDS_P1;SDS_P2;PMS_P1;PMS_P2;Temp;Humidity;BMP_temperature;BMP_pressure;BME280_temperature;BME280_humidity;BME280_pressure;Samples;Min_cycle;Max_cycle;Signal;HPM_P1;HPM_P2
2022/03/17 00:00:22;;;;;;;33.05;18.42;;;10.00;99.90;;;;;;5051068;28;20382;-67
2022/03/17 00:02:47;;;;;;;31.13;18.35;;;10.00;99.90;;;;;;5047982;28;20130;-66
2022/03/17 00:05:13;;;;;;;31.33;19.13;;;9.90;99.90;;;;;;5051131;28;20399;-67
2022/03/17 00:07:41;;;;;;;32.75;19.05;;;9.90;99.90;;;;;;5049322;28;20099;-66
2022/03/17 00:10:09;;;;;;;27.95;17.92;;;9.90;99.90;;;;;;5052071;28;20037;-67
2022/03/17 00:12:35;;;;;;;;;;;9.90;99.90;;;;;;5053627;28;20124;-67
2022/03/17 00:15:01;;;;;;;29.02;18.65;;;9.90;99.90;;;;;;5039916;28;20091;-67
2022/03/17 00:17:26;;;;;;;33.25;19.95;;;10.00;99.90;;;;;;5044617;28;20044;-67
2022/03/17 00:19:53;;;;;;;28.92;18.00;;;9.90;99.90;;;;;;5052386;28;20056;-66
2022/03/17 00:22:19;;;;;;;33.22;18.80;;;9.90;99.90;;;;;;5051754;28;20405;-67
2022/03/17 00:24:46;;;;;;;32.60;19.02;;;9.90;99.90;;;;;;5050703;28;20060;-65
2022/03/17 00:27:12;;;;;;;31.15;18.45;;;9.90;99.90;;;;;;5052732;28;20052;-66
2022/03/17 00:29:38;;;;;;;37.25;20.45;;;9.90;99.90;;;;;;5051673;28;20466;-66
2022/03/17 00:32:05;;;;;;;33.40;19.40;;;9.80;99.90;;;;;;5051178;28;20056;-67
2022/03/17 00:34:31;;;;;;;28.50;18.55;;;9.80;99.90;;;;;;5027261;28;20045;-66
2022/03/17 00:36:57;;;;;;;27.85;18.70;;;9.90;99.90;;;;;;5051117;28;20033;-66
2022/03/17 00:39:23;;;;;;;37.13;20.30;;;9.80;99.90;;;;;;5052223;28;20037;-67
2022/03/17 00:41:49;;;;;;;32.00;18.13;;;9.80;99.90;;;;;;5051114;28;20044;-66
2022/03/17 00:44:15;;;;;;;27.75;18.58;;;9.80;99.90;;;;;;5048109;28;20036;-66
2022/03/17 00:46:41;;;;;;;29.77;19.02;;;9.80;99.90;;;;;;5037249;28;20052;-66
2022/03/17 00:49:07;;;;;;;34.45;18.98;;;9.80;99.90;;;;;;5051432;28;20075;-67
2022/03/17 00:51:33;;;;;;;29.73;18.58;;;9.80;99.90;;;;;;5052508;28;20102;-66
2022/03/17 00:53:59;;;;;;;34.05;19.83;;;9.80;99.90;;;;;;5050983;28;20412;-66
2022/03/17 00:56:26;;;;;;;29.35;19.42;;;9.90;99.90;;;;;;5047186;28;20029;-66
2022/03/17 00:58:52;;;;;;;31.45;18.17;;;9.70;99.90;;;;;;5051027;28;20446;-66
2022/03/17 01:01:18;;;;;;;28.90;18.33;;;9.70;99.90;;;;;;5052955;28;20132;-66
2022/03/17 01:03:45;;;;;;;30.42;19.55;;;9.70;99.90;;;;;;5027736;28;20037;-68
2022/03/17 01:06:11;;;;;;;29.42;18.15;;;9.70;99.90;;;;;;5052288;28;20079;-66
2022/03/17 01:08:38;;;;;;;32.53;18.98;;;9.70;99.90;;;;;;5052016;28;20570;-66
2022/03/17 01:11:05;;;;;;;31.00;19.00;;;9.70;99.90;;;;;;5046201;28;20056;-68
2022/03/17 01:13:31;;;;;;;33.08;19.20;;;10.30;99.90;;;;;;5041002;28;20053;-67
2022/03/17 01:15:57;;;;;;;31.17;19.15;;;9.70;99.90;;;;;;5046360;28;20099;-67
2022/03/17 01:18:23;;;;;;;32.75;20.08;;;9.70;99.90;;;;;;5049510;28;20495;-67
2022/03/17 01:20:50;;;;;;;26.42;18.60;;;9.70;99.90;;;;;;5052886;28;20102;-65
2022/03/17 01:23:15;;;;;;;32.20;19.63;;;9.80;99.90;;;;;;5044548;28;20037;-65
2022/03/17 01:25:41;;;;;;;34.78;20.02;;;9.70;99.90;;;;;;5046829;28;20103;-66
2022/03/17 01:28:06;;;;;;;32.92;18.92;;;9.70;99.90;;;;;;5015926;28;20552;-67
2022/03/17 01:30:32;;;;;;;33.53;20.90;;;9.70;99.90;;;;;;5045970;28;20038;-65
2022/03/17 01:32:58;;;;;;;33.10;19.75;;;9.70;99.90;;;;;;5036210;28;20059;-66
2022/03/17 01:35:23;;;;;;;35.55;21.02;;;9.60;99.90;;;;;;5033393;28;20075;-67
2022/03/17 01:37:49;;;;;;;30.55;19.15;;;9.70;99.90;;;;;;5052554;28;20124;-66
2022/03/17 01:40:15;;;;;;;32.83;20.08;;;9.70;99.90;;;;;;5049873;28;20040;-66
2022/03/17 01:42:40;;;;;;;33.70;20.20;;;10.30;99.90;;;;;;5043781;28;20491;-66
2022/03/17 01:45:08;;;;;;;34.58;19.65;;;9.60;99.90;;;;;;5049959;28;20048;-67
2022/03/17 01:47:34;;;;;;;30.63;19.83;;;9.60;99.90;;;;;;5045580;28;21407;-66
2022/03/17 01:50:04;;;;;;;29.25;18.85;;;9.60;99.90;;;;;;5047934;28;20164;-67
2022/03/17 01:52:30;;;;;;;34.75;20.48;;;9.60;99.90;;;;;;5045930;28;20090;-67
2022/03/17 01:54:57;;;;;;;31.15;19.35;;;9.60;99.90;;;;;;5047724;28;20586;-67
2022/03/17 01:57:22;;;;;;;35.92;20.25;;;9.60;99.90;;;;;;5051625;28;20037;-66
2022/03/17 01:59:49;;;;;;;29.98;19.42;;;9.60;99.90;;;;;;5051102;28;20037;-67
2022/03/17 02:02:15;;;;;;;31.60;19.48;;;9.60;99.90;;;;;;5051448;28;20041;-67
2022/03/17 02:04:41;;;;;;;35.13;21.25;;;9.50;99.90;;;;;;5040842;28;20071;-66
2022/03/17 02:07:08;;;;;;;32.47;20.45;;;9.50;99.90;;;;;;5028591;28;20053;-67
2022/03/17 02:09:35;;;;;;;36.33;21.88;;;9.60;99.90;;;;;;5047608;28;20044;-66
2022/03/17 02:14:58;;;;;;;33.95;19.88;;;9.60;99.90;;;;;;5050955;28;20060;-66
2022/03/17 02:17:24;;;;;;;33.97;20.50;;;9.60;99.90;;;;;;5033374;28;20045;-67
2022/03/17 02:19:50;;;;;;;30.20;20.13;;;9.60;99.90;;;;;;5048209;28;20101;-66
2022/03/17 02:22:19;;;;;;;35.72;20.52;;;9.60;99.90;;;;;;5043627;28;20530;-67
2022/03/17 02:27:46;;;;;;;31.23;19.45;;;9.60;99.90;;;;;;5048552;28;20048;-66
2022/03/17 02:30:14;;;;;;;30.63;20.33;;;9.60;99.90;;;;;;5030070;28;20459;-67
2022/03/17 02:32:40;;;;;;;34.28;20.48;;;9.60;99.90;;;;;;5049331;28;20051;-67
2022/03/17 02:35:08;;;;;;;32.00;20.33;;;9.60;99.90;;;;;;5045053;28;20036;-67
2022/03/17 02:37:34;;;;;;;;;;;9.60;99.90;;;;;;5044483;28;20453;-67
2022/03/17 02:40:06;;;;;;;32.00;20.80;;;9.60;99.90;;;;;;5049550;28;19920;-66
2022/03/17 02:42:32;;;;;;;33.70;20.50;;;9.60;99.90;;;;;;5005532;28;20041;-66
2022/03/17 02:44:59;;;;;;;35.72;20.90;;;9.60;99.90;;;;;;5046507;28;20037;-66
2022/03/17 02:47:26;;;;;;;33.65;20.67;;;9.60;99.90;;;;;;5050332;28;20387;-66
2022/03/17 02:49:54;;;;;;;33.03;19.35;;;9.60;99.90;;;;;;5046974;28;20049;-66
2022/03/17 02:52:22;;;;;;;35.45;20.90;;;9.60;99.90;;;;;;5007910;28;20049;-66
2022/03/17 02:54:48;;;;;;;32.83;21.58;;;9.60;99.90;;;;;;5043429;28;20403;-67
2022/03/17 02:57:14;;;;;;;31.05;20.20;;;9.60;99.90;;;;;;5043019;28;20456;-67
2022/03/17 02:59:39;;;;;;;33.08;20.35;;;9.60;99.90;;;;;;5044749;28;20064;-67
2022/03/17 03:02:05;;;;;;;32.08;20.30;;;9.60;99.90;;;;;;5035221;28;20513;-67
2022/03/17 03:04:33;;;;;;;30.65;19.40;;;9.60;99.90;;;;;;5043278;28;20064;-67
2022/03/17 03:07:02;;;;;;;34.45;20.48;;;9.60;99.90;;;;;;5043023;28;20167;-66
2022/03/17 03:09:29;;;;;;;39.58;20.65;;;9.60;99.90;;;;;;5031115;28;20072;-67
2022/03/17 03:11:55;;;;;;;32.38;20.40;;;9.60;99.90;;;;;;5048305;28;20048;-68
2022/03/17 03:14:21;;;;;;;32.95;20.88;;;9.60;99.90;;;;;;5044435;28;20043;-65
2022/03/17 03:16:47;;;;;;;36.25;20.95;;;9.60;99.90;;;;;;5040645;28;20038;-67
2022/03/17 03:19:13;;;;;;;34.55;20.13;;;9.60;99.90;;;;;;5043380;28;20128;-66
2022/03/17 03:21:39;;;;;;;30.67;20.40;;;9.60;99.90;;;;;;5044613;28;20125;-66
2022/03/17 03:24:05;;;;;;;34.00;21.13;;;9.60;99.90;;;;;;5045450;28;20490;-67
2022/03/17 03:26:30;;;;;;;29.70;20.33;;;9.60;99.90;;;;;;5032329;28;20503;-66
2022/03/17 03:28:56;;;;;;;33.20;20.88;;;9.70;99.90;;;;;;5030780;28;20087;-67
2022/03/17 03:31:22;;;;;;;32.83;20.35;;;9.70;99.90;;;;;;5048732;28;20041;-67
2022/03/17 03:33:50;;;;;;;30.40;20.10;;;9.90;99.90;;;;;;5050488;28;20055;-66
2022/03/17 03:39:00;;;;;;;30.20;20.30;;;9.90;99.90;;;;;;5048052;28;20143;-66
2022/03/17 03:41:25;;;;;;;37.00;22.02;;;9.90;99.90;;;;;;5046198;28;20127;-67
2022/03/17 03:43:51;;;;;;;33.80;21.30;;;10.00;99.90;;;;;;5045794;28;20144;-66
2022/03/17 03:46:17;;;;;;;31.35;21.10;;;10.00;99.90;;;;;;5046111;28;20556;-67
2022/03/17 03:48:42;;;;;;;33.83;20.70;;;10.00;99.90;;;;;;5043786;28;20037;-66
2022/03/17 03:51:08;;;;;;;33.90;20.58;;;10.00;99.90;;;;;;5050596;28;20045;-67
2022/03/17 03:56:18;;;;;;;32.78;21.88;;;10.10;99.90;;;;;;5032004;28;20084;-67
2022/03/17 03:58:43;;;;;;;31.92;21.30;;;10.10;99.90;;;;;;5047407;28;20522;-66
2022/03/17 04:01:09;;;;;;;32.85;21.20;;;10.10;99.90;;;;;;5050674;28;20064;-67
2022/03/17 04:03:35;;;;;;;32.10;21.50;;;10.10;99.90;;;;;;5049213;28;20036;-66
2022/03/17 04:06:00;;;;;;;35.47;22.17;;;10.10;99.90;;;;;;5038516;28;20088;-66
2022/03/17 04:08:26;;;;;;;32.47;22.17;;;10.10;99.90;;;;;;5043480;28;20046;-66
2022/03/17 04:10:52;;;;;;;34.90;22.58;;;10.10;99.90;;;;;;5039928;28;20037;-66
2022/03/17 04:13:17;;;;;;;33.88;23.48;;;10.10;99.90;;;;;;5048487;28;20041;-66
2022/03/17 04:15:43;;;;;;;34.22;24.27;;;10.10;99.90;;;;;;5029822;28;20128;-66
2022/03/17 04:18:08;;;;;;;38.53;24.20;;;10.10;99.90;;;;;;5049105;28;20545;-66
2022/03/17 04:20:34;;;;;;;40.88;25.83;;;10.00;99.90;;;;;;5048336;28;20045;-67
2022/03/17 04:23:00;;;;;;;40.15;25.85;;;10.00;99.90;;;;;;5048753;28;20103;-67
2022/03/17 04:25:26;;;;;;;43.20;28.02;;;9.90;99.90;;;;;;5044149;28;20081;-66
2022/03/17 04:27:51;;;;;;;42.42;28.30;;;9.90;99.90;;;;;;5049828;28;20423;-66
2022/03/17 04:30:17;;;;;;;39.95;28.25;;;9.80;99.90;;;;;;5048305;28;20072;-66
2022/03/17 04:32:43;;;;;;;45.65;28.83;;;10.60;99.90;;;;;;5051607;28;20120;-66
2022/03/17 04:35:09;;;;;;;48.67;28.48;;;9.70;99.90;;;;;;5053162;28;20158;-66
2022/03/17 04:37:35;;;;;;;46.75;30.05;;;9.70;99.90;;;;;;5050896;28;20551;-66
2022/03/17 04:40:02;;;;;;;44.92;30.15;;;9.70;99.90;;;;;;5047631;28;20080;-67
2022/03/17 04:42:28;;;;;;;42.88;29.38;;;9.60;99.90;;;;;;5050412;28;20078;-67
2022/03/17 04:44:55;;;;;;;50.05;30.50;;;9.60;99.90;;;;;;5051468;28;20037;-66
2022/03/17 04:47:21;;;;;;;47.63;30.45;;;9.60;99.90;;;;;;5045298;28;20475;-66
2022/03/17 04:49:47;;;;;;;48.80;30.58;;;9.50;99.90;;;;;;5053380;28;20473;-66
2022/03/17 04:54:57;;;;;;;48.80;31.85;;;9.50;99.90;;;;;;5044703;28;20423;-67
2022/03/17 04:57:24;;;;;;;51.40;33.33;;;9.50;99.90;;;;;;5045611;28;20033;-67
2022/03/17 04:59:50;;;;;;;55.78;33.47;;;9.40;99.90;;;;;;5047472;28;20087;-67
2022/03/17 05:02:15;;;;;;;55.20;33.83;;;9.40;99.90;;;;;;5034299;28;20072;-67
2022/03/17 05:04:41;;;;;;;56.85;34.85;;;9.40;99.90;;;;;;5034148;28;20033;-67
2022/03/17 05:07:07;;;;;;;58.95;36.72;;;9.40;99.90;;;;;;5048913;28;20436;-67
2022/03/17 05:09:33;;;;;;;63.40;37.85;;;9.40;99.90;;;;;;5047991;28;20045;-67
2022/03/17 05:11:58;;;;;;;64.25;36.38;;;9.40;99.90;;;;;;5051390;28;20056;-66
2022/03/17 05:14:24;;;;;;;65.85;38.88;;;9.50;99.90;;;;;;5050459;28;20064;-67
2022/03/17 05:16:50;;;;;;;66.10;36.90;;;9.30;99.90;;;;;;5050413;28;20086;-67
2022/03/17 05:19:15;;;;;;;61.25;36.47;;;9.40;99.90;;;;;;5054925;28;20111;-67
2022/03/17 05:21:41;;;;;;;60.40;35.92;;;9.30;99.90;;;;;;5050941;28;20049;-68
2022/03/17 05:24:07;;;;;;;44.83;24.90;;;9.30;99.90;;;;;;5055236;28;20040;-69
2022/03/17 05:26:33;;;;;;;29.30;17.60;;;9.30;99.90;;;;;;5050534;28;20391;-68
2022/03/17 05:28:58;;;;;;;15.05;11.10;;;9.30;99.90;;;;;;5056270;28;20037;-68
2022/03/17 05:31:24;;;;;;;13.15;9.00;;;9.20;99.90;;;;;;5040952;28;20041;-70
2022/03/17 05:33:50;;;;;;;13.52;8.07;;;9.00;99.90;;;;;;5052724;28;20510;-67
2022/03/17 05:36:15;;;;;;;11.95;8.13;;;8.90;99.90;;;;;;5054267;28;20033;-68
2022/03/17 05:38:41;;;;;;;13.05;8.13;;;8.70;99.90;;;;;;5052902;28;20049;-67
2022/03/17 05:41:06;;;;;;;11.82;8.75;;;8.60;99.90;;;;;;5030417;28;20102;-68
2022/03/17 05:43:32;;;;;;;11.90;8.38;;;8.50;99.90;;;;;;5051039;28;20036;-67
2022/03/17 05:45:58;;;;;;;14.60;8.68;;;8.50;99.90;;;;;;5043448;28;20041;-67
2022/03/17 05:48:23;;;;;;;13.27;9.13;;;8.40;99.90;;;;;;5043289;28;20029;-68
2022/03/17 05:50:50;;;;;;;12.70;8.70;;;8.40;99.90;;;;;;5037450;28;20083;-67
2022/03/17 05:53:16;;;;;;;14.77;8.38;;;8.30;99.90;;;;;;5046250;28;20041;-66
2022/03/17 05:55:41;;;;;;;22.67;10.35;;;8.30;99.90;;;;;;5051598;28;20443;-66
2022/03/17 05:58:07;;;;;;;18.27;11.00;;;8.20;99.90;;;;;;5051002;28;20044;-66
2022/03/17 06:00:35;;;;;;;24.13;11.20;;;8.20;99.90;;;;;;5050153;28;20491;-67
2022/03/17 06:03:00;;;;;;;25.55;13.02;;;8.20;99.90;;;;;;5049069;28;20442;-68
2022/03/17 06:05:27;;;;;;;28.00;12.63;;;8.20;99.90;;;;;;5052148;28;20044;-68
2022/03/17 06:07:55;;;;;;;27.80;13.20;;;8.10;99.90;;;;;;5016252;28;20049;-68
2022/03/17 06:10:23;;;;;;;25.00;11.80;;;8.10;99.90;;;;;;5042525;28;20033;-67
2022/03/17 06:12:51;;;;;;;28.10;12.73;;;8.00;99.90;;;;;;5047964;28;20533;-66
2022/03/17 06:15:17;;;;;;;;;;;8.00;99.90;;;;;;5049779;28;20037;-67
2022/03/17 06:17:48;;;;;;;27.58;10.57;;;7.90;99.90;;;;;;5028847;28;20315;-66
2022/03/17 06:20:19;;;;;;;23.02;10.32;;;8.00;99.90;;;;;;5038141;28;20579;-67
2022/03/17 06:22:48;;;;;;;27.08;9.23;;;7.90;99.90;;;;;;5042552;28;20400;-67
2022/03/17 06:25:18;;;;;;;19.45;7.40;;;7.90;99.90;;;;;;5039795;28;20053;-67
2022/03/17 06:27:45;;;;;;;19.52;7.15;;;7.80;99.90;;;;;;5022436;28;20077;-67
2022/03/17 06:30:13;;;;;;;17.20;7.00;;;7.80;99.90;;;;;;5046356;28;20053;-66
2022/03/17 06:32:40;;;;;;;18.52;6.65;;;7.80;99.90;;;;;;5048418;28;20044;-68
2022/03/17 06:35:13;;;;;;;14.55;5.82;;;7.80;99.90;;;;;;5050699;28;20036;-68
2022/03/17 06:37:39;;;;;;;14.23;5.90;;;7.80;99.90;;;;;;5041074;28;20052;-66
2022/03/17 06:40:06;;;;;;;17.42;5.88;;;7.80;99.90;;;;;;5025015;28;20415;-68
2022/03/17 06:42:32;;;;;;;19.98;5.88;;;7.80;99.90;;;;;;5029288;28;20072;-67
2022/03/17 06:44:58;;;;;;;18.83;5.15;;;7.90;99.90;;;;;;5040228;28;20099;-67
2022/03/17 06:47:23;;;;;;;15.68;4.78;;;7.80;99.90;;;;;;5029545;28;20091;-66
2022/03/17 06:49:49;;;;;;;15.23;5.05;;;7.80;99.90;;;;;;5044768;28;20037;-67
2022/03/17 06:52:14;;;;;;;14.07;4.70;;;7.80;99.90;;;;;;5047828;28;20480;-67
2022/03/17 06:54:40;;;;;;;18.52;5.55;;;7.80;99.90;;;;;;5029710;28;20045;-67
2022/03/17 06:57:06;;;;;;;14.07;4.75;;;7.80;99.90;;;;;;5044073;28;20055;-67
2022/03/17 06:59:32;;;;;;;13.45;4.20;;;7.80;99.90;;;;;;5047573;28;20102;-68
2022/03/17 07:01:57;;;;;;;14.85;4.43;;;7.80;99.90;;;;;;5047827;28;20071;-66
2022/03/17 07:04:23;;;;;;;15.10;3.35;;;7.80;99.90;;;;;;5032586;28;20067;-66
2022/03/17 07:06:48;;;;;;;14.05;3.40;;;7.70;99.90;;;;;;5043271;28;20071;-65
2022/03/17 07:09:14;;;;;;;7.35;3.25;;;7.80;99.90;;;;;;5043015;28;20102;-67
2022/03/17 07:11:40;;;;;;;12.38;3.35;;;7.70;99.90;;;;;;5048394;28;20080;-66
2022/03/17 07:14:05;;;;;;;8.95;2.53;;;7.70;99.90;;;;;;5047618;28;20059;-66
2022/03/17 07:16:31;;;;;;;10.73;2.40;;;7.60;99.90;;;;;;5030731;28;20056;-68
2022/03/17 07:18:57;;;;;;;9.95;2.40;;;7.60;99.90;;;;;;5051321;28;20679;-66
2022/03/17 07:21:23;;;;;;;10.70;2.20;;;7.60;99.90;;;;;;5038528;28;20060;-68
2022/03/17 07:23:48;;;;;;;10.27;2.30;;;7.70;99.90;;;;;;5051313;28;20041;-66
2022/03/17 07:26:14;;;;;;;16.73;3.17;;;7.60;99.90;;;;;;5049003;28;20120;-66
2022/03/17 07:28:40;;;;;;;9.88;2.63;;;7.70;99.90;;;;;;5049135;28;20395;-67
2022/03/17 07:31:06;;;;;;;8.77;2.22;;;7.70;99.90;;;;;;5052175;28;20036;-66
2022/03/17 07:33:32;;;;;;;11.35;2.35;;;7.70;99.90;;;;;;5050222;28;20084;-67
2022/03/17 07:35:58;;;;;;;11.90;2.45;;;7.70;99.90;;;;;;5034761;28;20495;-66
2022/03/17 07:38:23;;;;;;;14.95;2.75;;;7.60;99.90;;;;;;5028881;28;20071;-67
2022/03/17 07:40:49;;;;;;;12.25;2.72;;;7.70;99.90;;;;;;5046799;28;20043;-68
2022/03/17 07:43:15;;;;;;;9.65;2.58;;;7.60;99.90;;;;;;5041211;28;20049;-67
2022/03/17 07:45:40;;;;;;;11.40;1.90;;;7.60;99.90;;;;;;5051083;28;20041;-67
2022/03/17 07:48:06;;;;;;;17.80;2.70;;;7.70;99.90;;;;;;5049295;28;20120;-65
2022/03/17 07:50:33;;;;;;;20.25;2.53;;;7.60;99.90;;;;;;5049557;28;20099;-67
2022/03/17 07:52:59;;;;;;;18.67;2.78;;;7.60;99.90;;;;;;5052409;28;20073;-67
2022/03/17 07:55:25;;;;;;;11.68;2.67;;;7.60;99.90;;;;;;5049274;28;20506;-66
2022/03/17 07:57:52;;;;;;;17.20;2.53;;;7.60;99.90;;;;;;5055828;28;20041;-66
2022/03/17 08:00:17;;;;;;;19.38;2.97;;;8.60;99.90;;;;;;5051172;28;20056;-65
2022/03/17 08:02:43;;;;;;;15.32;2.60;;;7.70;99.90;;;;;;5052635;28;20053;-67
2022/03/17 08:05:10;;;;;;;21.40;2.65;;;7.70;99.90;;;;;;5050792;28;20041;-66
2022/03/17 08:07:36;;;;;;;12.10;2.33;;;7.70;99.90;;;;;;5050132;28;20043;-67
2022/03/17 08:10:02;;;;;;;16.17;2.53;;;7.70;99.90;;;;;;5049826;28;20120;-67
2022/03/17 08:12:28;;;;;;;14.75;2.72;;;7.70;99.90;;;;;;5030374;28;20042;-66
2022/03/17 08:14:54;;;;;;;21.92;2.83;;;7.80;99.90;;;;;;5012079;28;20045;-66
2022/03/17 08:17:20;;;;;;;11.75;2.63;;;7.80;99.90;;;;;;5049896;28;20037;-66
2022/03/17 08:19:45;;;;;;;20.40;3.53;;;7.80;99.90;;;;;;5050212;28;20049;-66
2022/03/17 08:22:11;;;;;;;26.08;3.38;;;7.80;99.90;;;;;;5051441;28;20037;-67
2022/03/17 08:24:36;;;;;;;18.92;3.35;;;7.70;99.90;;;;;;5052200;28;20053;-68
2022/03/17 08:27:03;;;;;;;20.20;3.33;;;7.70;99.90;;;;;;5049828;28;20053;-66
2022/03/17 08:29:29;;;;;;;24.33;3.30;;;7.70;99.90;;;;;;5050280;28;20163;-66
2022/03/17 08:31:55;;;;;;;23.15;3.53;;;7.70;99.90;;;;;;5038811;28;20075;-66
2022/03/17 08:34:21;;;;;;;22.52;3.40;;;7.70;99.90;;;;;;5053391;28;20132;-67
2022/03/17 08:36:47;;;;;;;22.60;3.58;;;7.80;99.90;;;;;;5048015;28;20567;-67
2022/03/17 08:39:13;;;;;;;15.27;3.25;;;7.80;99.90;;;;;;5061301;28;20116;-66
2022/03/17 08:41:38;;;;;;;21.50;4.00;;;7.90;99.90;;;;;;5047581;28;20128;-67
2022/03/17 08:44:05;;;;;;;21.17;2.72;;;7.90;99.90;;;;;;5043501;28;20044;-67
2022/03/17 08:49:22;;;;;;;18.48;3.08;;;7.90;99.90;;;;;;5050787;28;20045;-66
2022/03/17 08:51:54;;;;;;;15.90;2.72;;;7.80;99.90;;;;;;5049751;28;20049;-67
2022/03/17 08:54:24;;;;;;;12.93;2.15;;;7.80;99.90;;;;;;5053025;28;20107;-66
2022/03/17 08:56:59;;;;;;;13.30;2.33;;;7.90;99.90;;;;;;5049840;28;20049;-66
2022/03/17 08:59:25;;;;;;;14.77;2.58;;;7.80;99.90;;;;;;5055411;28;20091;-65
2022/03/17 09:01:51;;;;;;;16.65;3.30;;;7.90;99.90;;;;;;5052508;28;20048;-67
2022/03/17 09:04:16;;;;;;;14.68;2.63;;;7.80;99.90;;;;;;5047738;28;20041;-67
2022/03/17 09:06:43;;;;;;;17.08;3.22;;;7.80;99.90;;;;;;5049745;28;20041;-67
2022/03/17 09:09:10;;;;;;;17.35;2.53;;;7.80;99.90;;;;;;5051644;28;20057;-66
2022/03/17 09:11:36;;;;;;;12.70;2.80;;;7.90;99.90;;;;;;5052787;28;20045;-66
2022/03/17 09:14:01;;;;;;;14.35;2.83;;;8.00;99.90;;;;;;5050891;28;20090;-65
2022/03/17 09:16:27;;;;;;;13.35;2.53;;;8.10;99.90;;;;;;5052874;28;20086;-65
2022/03/17 09:18:53;;;;;;;11.35;2.33;;;8.20;99.90;;;;;;5011349;28;1056949;-65
2022/03/17 09:21:18;;;;;;;11.88;2.88;;;8.20;99.90;;;;;;5054709;28;20049;-66
2022/03/17 09:23:44;;;;;;;18.20;2.47;;;8.20;99.90;;;;;;5048493;28;20060;-66
2022/03/17 09:26:09;;;;;;;18.02;2.40;;;8.20;99.90;;;;;;5055110;28;20040;-66
2022/03/17 09:28:35;;;;;;;17.48;2.85;;;8.10;99.90;;;;;;5049804;28;20045;-65
2022/03/17 09:31:01;;;;;;;17.58;2.58;;;8.10;99.90;;;;;;5045029;28;20052;-66
2022/03/17 09:33:26;;;;;;;11.65;2.60;;;8.10;99.90;;;;;;5054345;28;20053;-66
2022/03/17 09:35:57;;;;;;;15.52;3.00;;;8.20;99.90;;;;;;5060177;28;20029;-66
2022/03/17 09:38:24;;;;;;;14.77;2.85;;;8.40;99.90;;;;;;5053759;28;20041;-67
2022/03/17 09:40:49;;;;;;;13.68;2.13;;;8.40;99.90;;;;;;5053860;28;20407;-66
2022/03/17 09:43:18;;;;;;;13.15;2.30;;;8.60;99.90;;;;;;5052356;28;20037;-67
2022/03/17 09:45:45;;;;;;;16.48;2.60;;;8.70;99.90;;;;;;5054086;28;20187;-65
2022/03/17 09:48:14;;;;;;;8.48;2.45;;;8.70;99.90;;;;;;5053571;28;20055;-66
2022/03/17 09:50:41;;;;;;;13.95;2.53;;;8.70;99.90;;;;;;5042163;28;20396;-65
2022/03/17 09:53:08;;;;;;;17.92;2.60;;;8.70;99.90;;;;;;5053763;28;20059;-66
2022/03/17 09:55:35;;;;;;;19.95;2.97;;;8.80;99.90;;;;;;5036548;28;20446;-66
2022/03/17 09:58:03;;;;;;;14.60;2.72;;;8.80;99.90;;;;;;5041268;28;20037;-66
2022/03/17 10:00:48;;;;;;;19.67;2.97;;;8.80;99.90;;;;;;5051417;28;20045;-65
2022/03/17 10:03:28;;;;;;;15.93;3.28;;;8.90;99.90;;;;;;5047099;28;20056;-66
2022/03/17 10:05:57;;;;;;;16.98;2.88;;;8.90;99.90;;;;;;5053479;28;20112;-66
2022/03/17 10:08:23;;;;;;;21.27;3.78;;;9.10;99.90;;;;;;5019916;28;20049;-68
2022/03/17 10:10:52;;;;;;;14.15;3.08;;;9.30;99.90;;;;;;5053193;28;20045;-65
2022/03/17 10:13:18;;;;;;;;;;;9.40;99.90;;;;;;5031211;28;20083;-66
2022/03/17 10:15:46;;;;;;;11.43;2.35;;;9.60;99.90;;;;;;5052145;28;19920;-66
2022/03/17 10:18:23;;;;;;;13.55;2.33;;;9.70;99.90;;;;;;5046391;28;20154;-65
2022/03/17 10:21:11;;;;;;;16.23;2.85;;;9.90;99.90;;;;;;5042022;28;20068;-66
2022/03/17 10:23:48;;;;;;;13.07;2.75;;;10.00;99.90;;;;;;5050580;28;20479;-66
2022/03/17 10:26:37;;;;;;;14.45;2.92;;;10.00;99.90;;;;;;5051365;28;20060;-66
2022/03/17 10:29:04;;;;;;;13.60;2.30;;;10.10;99.90;;;;;;5026394;28;20518;-65
2022/03/17 10:31:30;;;;;;;15.70;3.28;;;10.30;99.90;;;;;;5054624;28;20306;-67
2022/03/17 10:33:57;;;;;;;10.85;2.30;;;10.60;99.90;;;;;;5044423;28;20045;-65
2022/03/17 10:36:22;;;;;;;12.68;2.28;;;10.60;99.90;;;;;;5052584;28;20510;-66
2022/03/17 10:38:51;;;;;;;21.60;2.83;;;10.80;99.90;;;;;;5050660;28;20084;-67
2022/03/17 10:41:17;;;;;;;11.45;2.60;;;11.10;99.90;;;;;;5053189;28;20041;-66
2022/03/17 10:43:44;;;;;;;12.05;3.22;;;11.50;99.90;;;;;;5023488;28;20064;-65
2022/03/17 10:46:15;;;;;;;18.05;3.10;;;12.00;99.90;;;;;;5050655;28;20040;-65
2022/03/17 10:49:01;;;;;;;15.88;3.00;;;12.40;99.90;;;;;;5036261;28;20053;-66
2022/03/17 10:51:34;;;;;;;16.27;3.42;;;13.00;99.90;;;;;;5055784;28;20481;-65
2022/03/17 10:54:03;;;;;;;10.40;2.53;;;13.60;99.90;;;;;;5054467;28;20495;-64
2022/03/17 10:56:29;;;;;;;14.02;2.60;;;13.60;99.90;;;;;;5050851;28;20057;-65
2022/03/17 10:58:55;;;;;;;13.10;3.33;;;13.50;99.90;;;;;;5042391;28;20048;-65
2022/03/17 11:01:42;;;;;;;16.75;2.90;;;13.70;99.70;;;;;;5051354;28;20408;-65
2022/03/17 11:04:11;;;;;;;16.52;2.95;;;13.40;98.40;;;;;;5047001;28;20044;-66
2022/03/17 11:06:38;;;;;;;;;;;13.10;97.80;;;;;;5035520;28;20048;-65
2022/03/17 11:09:05;;;;;;;13.30;3.33;;;12.50;97.50;;;;;;5051784;28;19921;-65
2022/03/17 11:11:31;;;;;;;9.25;2.33;;;12.20;97.80;;;;;;5053557;28;20052;-66
2022/03/17 11:13:58;;;;;;;18.17;2.42;;;11.80;98.10;;;;;;5037812;28;20057;-66
2022/03/17 11:16:35;;;;;;;16.10;2.80;;;11.80;98.00;;;;;;5052294;28;20124;-64
2022/03/17 11:19:03;;;;;;;15.63;3.42;;;11.60;98.90;;;;;;5052493;28;20056;-65
2022/03/17 11:21:32;;;;;;;11.07;2.75;;;11.40;99.30;;;;;;5054230;28;20124;-65
2022/03/17 11:24:06;;;;;;;17.55;2.63;;;11.40;99.80;;;;;;5059160;28;20044;-66
2022/03/17 11:26:40;;;;;;;17.73;3.60;;;11.80;99.90;;;;;;5018185;28;20049;-65
2022/03/17 11:29:07;;;;;;;13.27;2.92;;;12.20;99.40;;;;;;5052242;28;20052;-65
2022/03/17 11:31:54;;;;;;;12.55;2.75;;;12.80;98.60;;;;;;5052593;28;20037;-66
2022/03/17 11:34:39;;;;;;;15.25;2.97;;;13.40;98.50;;;;;;5034652;28;20064;-66
2022/03/17 11:37:25;;;;;;;6.38;1.98;;;13.90;96.90;;;;;;5040942;28;20060;-66
2022/03/17 11:40:14;;;;;;;18.55;2.92;;;14.40;93.40;;;;;;5031834;28;20056;-67
2022/03/17 11:43:03;;;;;;;13.23;2.75;;;14.20;92.60;;;;;;5053525;28;20075;-67
2022/03/17 11:45:34;;;;;;;;;;;14.30;93.50;;;;;;5053779;28;20111;-67
2022/03/17 11:48:02;;;;;;;15.65;2.88;;;14.80;96.30;;;;;;5060746;28;20007;-66
2022/03/17 11:50:36;;;;;;;12.50;2.90;;;15.20;92.40;;;;;;5053203;28;20045;-66
2022/03/17 11:53:14;;;;;;;12.30;2.80;;;15.70;91.10;;;;;;5055276;28;20128;-67
2022/03/17 11:55:42;;;;;;;17.77;3.03;;;15.10;89.20;;;;;;5049720;28;20083;-66
2022/03/17 11:58:33;;;;;;;11.82;2.88;;;15.00;90.90;;;;;;5046170;28;20052;-66
2022/03/17 12:01:09;;;;;;;10.63;2.47;;;15.00;85.60;;;;;;5052457;28;20076;-67
2022/03/17 12:03:37;;;;;;;14.13;3.47;;;15.10;89.40;;;;;;5053114;28;20045;-66
2022/03/17 12:06:13;;;;;;;;;;;15.60;88.20;;;;;;5050232;28;20045;-66
2022/03/17 12:09:01;;;;;;;11.27;2.50;;;15.90;79.80;;;;;;5056646;28;20378;-67
2022/03/17 12:11:31;;;;;;;20.58;2.65;;;15.90;80.00;;;;;;5007645;28;20044;-66
2022/03/17 12:14:16;;;;;;;7.38;2.55;;;15.70;76.60;;;;;;5043995;28;20099;-66
2022/03/17 12:17:05;;;;;;;10.85;2.80;;;15.70;76.50;;;;;;5063922;28;20387;-67
2022/03/17 12:19:48;;;;;;;12.85;3.05;;;15.10;76.10;;;;;;5042104;28;20048;-66
2022/03/17 12:22:18;;;;;;;15.55;2.80;;;14.90;78.00;;;;;;5043216;28;20083;-67
2022/03/17 12:25:02;;;;;;;9.48;2.33;;;14.90;78.50;;;;;;5047061;28;20127;-67
2022/03/17 12:27:35;;;;;;;11.25;2.60;;;15.20;76.90;;;;;;5053781;28;20108;-66
2022/03/17 12:30:13;;;;;;;11.05;3.05;;;15.50;79.00;;;;;;5052459;28;20028;-66
2022/03/17 12:32:47;;;;;;;11.98;2.90;;;15.40;77.40;;;;;;5035591;28;20045;-67
2022/03/17 12:35:14;;;;;;;7.38;2.30;;;15.60;76.90;;;;;;5063342;28;20040;-66
2022/03/17 12:37:42;;;;;;;9.90;2.92;;;15.70;75.70;;;;;;5056806;28;20498;-65
2022/03/17 12:40:13;;;;;;;8.90;2.33;;;15.60;73.00;;;;;;5057954;28;20148;-67
2022/03/17 12:42:44;;;;;;;10.63;2.10;;;15.70;70.90;;;;;;5037425;28;20049;-66
2022/03/17 12:45:24;;;;;;;14.77;2.70;;;15.60;72.50;;;;;;5051433;28;20052;-67
2022/03/17 12:47:56;;;;;;;8.23;2.58;;;15.50;73.70;;;;;;5028952;28;20479;-66
2022/03/17 12:50:23;;;;;;;12.63;2.50;;;15.20;72.10;;;;;;5046255;28;20045;-66
2022/03/17 12:52:49;;;;;;;15.30;3.05;;;15.30;74.10;;;;;;5049581;28;20128;-65
2022/03/17 12:55:18;;;;;;;12.75;2.20;;;15.50;75.30;;;;;;5052129;28;20103;-67
2022/03/17 12:57:46;;;;;;;10.13;2.33;;;15.90;72.30;;;;;;5056996;28;20072;-66
2022/03/17 13:00:14;;;;;;;11.10;2.47;;;16.00;71.90;;;;;;5054178;28;20049;-66
2022/03/17 13:02:47;;;;;;;13.88;2.72;;;16.00;72.10;;;;;;5043187;28;20044;-67